KAUM/AUM METAR and TAF weather

Enter ICAO airport designator
Station Type Date Time Source
KAUM METAR 2019/02/20 07:15 UTC NOAA

KAUM 200715Z AUTO 10011KT 1SM -SN BKN002 M06/M10 A3009 RMK AO2


Station Type Date Time Source
KAUM Decoded METAR 2019/02/20 07:15 UTC NOAA

Austin Municipal, MN, United States (KAUM) 43-40N 092-56W
Feb 20, 2019 - 02:15 AM EST / 2019.02.20 0715 UTC
Wind: from the E (100 degrees) at 13 MPH (11 KT):0
Visibility: 1 mile(s):0
Sky conditions: mostly cloudy
Weather: light snow
Temperature: 21 F (-6 C)
Windchill: 8 F (-13 C):1
Dew Point: 14 F (-10 C)
Relative Humidity: 73%
Pressure (altimeter): 30.09 in. Hg (1018 hPa)
ob: KAUM 200715Z AUTO 10011KT 1SM -SN BKN002 M06/M10 A3009 RMK AO2
cycle: 7

Station Type Date Time Source
KAUM TAF UTC NOAA

Error!


Example: see airport list